Lima, OH (45807)

10:37 PM EST on February 28, 2015 (GMT -0500)
West side Lima OH | Change Station
CLOSE
Current Station
Personal Weather Station
Location: Lima, OH
Elevation: 870 ft
Nearby Weather Stations
Active Advisory: Winter Weather Advisory Active Notice: Record Report

Elev 870 ft 40.75 °N, 84.13 °W | Updated 39 seconds ago

Overcast
Overcast
21.9 °F
Feels Like 22 °F
N
1.0
Wind Variable Wind from ESE
Gusts 6.0 mph

Today
High -- | Low -- °F
--% Chance of Precip.
Yesterday
High -- | Low -- °F
Precip. -- in
7:12 AM 6:26 PM
Waxing Gibbous, 82% visible
Pressure 30.53 in
Visibility 0.8 miles
Clouds
Windchill 22 °F
Dew Point 22 °F
Humidity 100%
Rainfall 0.00 in
Snow Depth Not available.
UV Not available.
Pollen .30 out of 12
Air Quality Not available.
Flu Activity Not available.
SPECI KAOH 010326Z AUTO 10004KT 3/4SM -SN VV016 M07/M11 A3053 RMK AO2 P0000 T10721111

More Conditions Fewer Conditions

Pressure 30.53 in
Visibility 0.8 miles
Clouds
Windchill 22 °F
Dew Point 22 °F
Humidity 100%
Rainfall 0.00 in
Snow Depth Not available.
UV Not available.
Pollen .30 out of 12
Air Quality Not available.
Flu Activity Not available.
SPECI KAOH 010326Z AUTO 10004KT 3/4SM -SN VV016 M07/M11 A3053 RMK AO2 P0000 T10721111

More Conditions Fewer Conditions

10-Day Weather Forecast

Almanac

Astronomy

Feb. 28, 2015 Rise Set
Actual Time
Civil Twilight
Nautical Twilight
Astronomical Twilight
Moon
Length of Visible Light
Length of Day
Tomorrow will be .
, % of the Moon is Illuminated

Today's Extremes

State Highs State Lows

Community

WunderPhotos

Upload Photos

1,801,284 photos uploaded!

WunderBlogs® & News

Nearby

Air Quality

  Air Quality AQ Index Pollutant
Not available.

Snow Depth

Station Depth Elevation

Earthquake Activity

City Distance Mag. Time & Date
Minimum magnitude displayed is 2.5.

Coastal Water Temperatures

Place Temperature

Nearby Weather Stations

Winter Weather Advisory
Statement as of 9:01 PM EST on February 28, 2015

... Winter Weather Advisory remains in effect until 7 PM EST
Sunday...

Hazardous weather...

* snow will continue to overspread the area this evening... and
   continue through the day Sunday.

* Total snow accumulations of 4 to 6 inches are expected by
   Sunday evening.

Impacts...

* snow covered roads will result in hazardous driving
   conditions.

Precautionary/preparedness actions...

A Winter Weather Advisory for snow means that periods of snow
will cause primarily travel difficulties. Be prepared for snow
covered roads and limited visibilities... and use caution while
driving.